Time;durP1;ratioP1;P1;durP2;ratioP2;P2;SDS_P1;SDS_P2;PMS_P1;PMS_P2;Temp;Humidity;BMP_temperature;BMP_pressure;BME280_temperature;BME280_humidity;BME280_pressure;Samples;Min_cycle;Max_cycle;Signal;HPM_P1;HPM_P2
2021/12/26 00:01:12;;;;;;;5.82;3.20;;;0.00;72.00;;;-1.23;58.68;94260.34;5027381;28;20224;-81
2021/12/26 00:03:41;;;;;;;5.50;3.25;;;0.00;71.80;;;-1.25;58.80;94264.00;5046728;28;20204;-82
2021/12/26 00:06:15;;;;;;;6.70;3.42;;;0.00;72.20;;;-1.27;58.91;94266.69;5031755;28;20231;-82
2021/12/26 00:08:45;;;;;;;3.88;3.00;;;-0.10;71.80;;;-1.29;59.04;94268.59;5025555;28;20195;-81
2021/12/26 00:11:13;;;;;;;6.53;3.10;;;-0.10;71.90;;;-1.36;58.91;94250.31;5043586;28;20307;-81
2021/12/26 00:13:41;;;;;;;5.90;3.15;;;-0.10;72.00;;;-1.35;58.58;94249.38;5028147;28;20208;-81
2021/12/26 00:16:10;;;;;;;5.72;2.90;;;-0.10;71.80;;;-1.40;58.68;94248.97;5015837;28;20220;-80
2021/12/26 00:18:42;;;;;;;6.50;3.60;;;-0.10;71.80;;;-1.45;58.46;94249.38;5011311;28;20203;-81
2021/12/26 00:21:10;;;;;;;4.50;3.20;;;-0.10;71.70;;;-1.50;58.66;94246.41;5050341;28;20714;-81
2021/12/26 00:23:37;;;;;;;6.72;3.25;;;-0.20;71.50;;;-1.56;58.67;94243.53;5052934;28;20199;-83
2021/12/26 00:26:04;;;;;;;6.53;3.40;;;-0.20;71.50;;;-1.65;58.41;94237.44;5048395;28;20220;-81
2021/12/26 00:28:32;;;;;;;6.53;3.10;;;-0.30;71.40;;;-1.73;58.33;94234.72;5033591;28;20666;-81
2021/12/26 00:31:00;;;;;;;4.45;3.30;;;-0.30;71.30;;;-1.82;58.31;94244.03;5025642;28;20216;-81
2021/12/26 00:33:27;;;;;;;5.35;3.00;;;-0.40;71.30;;;-1.92;58.65;94241.44;5050570;28;20196;-82
2021/12/26 00:35:56;;;;;;;4.32;3.03;;;-0.40;71.20;;;-2.00;58.67;94241.28;5032277;28;20881;-81
2021/12/26 00:38:24;;;;;;;4.18;2.70;;;-0.40;71.20;;;-2.11;58.81;94237.09;5029721;28;20296;-82
2021/12/26 00:40:51;;;;;;;4.32;2.90;;;-0.60;71.10;;;-2.18;58.61;94241.13;5062604;28;20259;-82
2021/12/26 00:43:18;;;;;;;6.43;3.55;;;-0.60;71.10;;;-2.27;58.50;94242.69;5053888;28;20192;-82
2021/12/26 00:45:46;;;;;;;5.63;3.13;;;-0.70;71.10;;;-2.34;58.68;94246.75;5033957;28;20781;-82
2021/12/26 00:48:13;;;;;;;4.78;2.95;;;-0.70;71.10;;;-2.40;58.61;94242.94;5050539;28;20603;-82
2021/12/26 00:50:42;;;;;;;6.65;3.40;;;-0.80;71.10;;;-2.52;58.21;94242.22;5050722;28;20970;-82
2021/12/26 00:53:11;;;;;;;6.53;3.30;;;-0.90;71.00;;;-2.55;58.56;94242.47;5016512;28;20188;-80
2021/12/26 00:55:39;;;;;;;5.40;3.15;;;-0.90;71.10;;;-2.61;58.76;94248.94;5032907;28;20234;-82
2021/12/26 00:58:06;;;;;;;5.85;3.30;;;-1.00;71.10;;;-2.65;58.76;94250.13;5032724;28;20226;-80
2021/12/26 01:00:42;;;;;;;5.13;3.25;;;-1.10;71.10;;;-2.71;58.94;94254.94;5048994;28;20295;-79
2021/12/26 01:03:10;;;;;;;5.10;3.22;;;-1.10;71.00;;;-2.79;58.88;94251.25;5016935;28;20634;-81
2021/12/26 01:05:41;;;;;;;5.75;2.95;;;-1.20;71.10;;;-2.80;58.76;94243.69;5035759;28;20208;-82
2021/12/26 01:08:14;;;;;;;4.80;3.13;;;-1.20;71.10;;;-2.89;58.99;94240.13;5051405;28;20290;-81
2021/12/26 01:10:55;;;;;;;5.22;3.13;;;-1.30;71.20;;;-2.95;58.99;94236.31;5036248;28;20306;-81
2021/12/26 01:13:32;;;;;;;4.50;2.55;;;-1.30;71.10;;;-2.96;58.96;94232.13;5052165;28;20196;-81
2021/12/26 01:16:11;;;;;;;5.15;3.20;;;-1.40;71.20;;;-3.02;58.96;94242.09;5043465;28;20221;-81
2021/12/26 01:18:51;;;;;;;7.03;3.08;;;-1.40;71.30;;;-3.07;59.03;94240.69;5014130;28;20224;-80
2021/12/26 01:21:25;;;;;;;3.70;2.90;;;-1.50;71.00;;;-3.14;59.00;94231.88;5057745;28;20275;-81
2021/12/26 01:24:08;;;;;;;5.05;2.90;;;-1.50;71.30;;;-3.15;58.99;94247.38;5047424;28;20192;-82
2021/12/26 01:26:37;;;;;;;4.18;2.85;;;-1.60;71.30;;;-3.17;58.99;94239.81;5030196;28;20286;-82
2021/12/26 01:29:06;;;;;;;4.57;3.08;;;-1.60;71.30;;;-3.20;59.03;94245.19;5024930;28;20205;-81
2021/12/26 01:31:37;;;;;;;3.90;2.78;;;-1.60;71.30;;;-3.22;59.16;94250.44;5033484;28;20235;-81
2021/12/26 01:34:24;;;;;;;5.70;2.95;;;-1.70;71.30;;;-3.27;59.02;94244.06;5054779;28;20227;-81
2021/12/26 01:37:10;;;;;;;4.28;2.80;;;-1.70;71.30;;;-3.30;59.21;94252.81;5030655;28;20230;-82
2021/12/26 01:39:46;;;;;;;4.25;2.75;;;-1.80;71.30;;;-3.32;59.36;94246.19;5039960;28;20651;-81
2021/12/26 01:42:23;;;;;;;5.90;2.95;;;-1.80;71.30;;;-3.33;59.11;94249.69;5027799;28;20200;-81
2021/12/26 01:45:22;;;;;;;4.95;2.83;;;-1.80;71.40;;;-3.36;59.16;94248.19;5017873;28;20223;-83
2021/12/26 01:48:04;;;;;;;5.45;2.90;;;-1.80;71.50;;;-3.36;59.33;94239.69;5028530;28;20200;-81
2021/12/26 01:50:39;;;;;;;5.25;2.92;;;-1.80;71.50;;;-3.37;59.23;94243.97;5034378;28;20215;-82
2021/12/26 01:53:07;;;;;;;6.97;3.38;;;-1.90;71.50;;;-3.39;59.37;94233.84;5013782;28;20228;-81
2021/12/26 01:55:42;;;;;;;5.57;3.17;;;-1.90;71.60;;;-3.38;59.25;94238.06;5023303;28;20243;-82
2021/12/26 01:58:27;;;;;;;4.53;2.80;;;-1.90;71.50;;;-3.38;59.12;94237.25;5050236;28;20705;-81
2021/12/26 02:01:15;;;;;;;4.70;3.03;;;-1.90;71.40;;;-3.39;59.14;94227.94;5033406;28;20300;-81
2021/12/26 02:03:43;;;;;;;5.72;2.90;;;-1.90;71.00;;;-3.39;58.68;94235.63;5064851;28;20192;-80
2021/12/26 02:06:10;;;;;;;4.80;2.72;;;-1.90;71.50;;;-3.38;59.10;94232.13;5033040;28;20230;-81
2021/12/26 02:08:49;;;;;;;4.47;2.90;;;-1.90;71.50;;;-3.36;59.29;94240.50;5038479;28;20714;-81
2021/12/26 02:11:17;;;;;;;3.92;2.67;;;-2.00;71.50;;;-3.34;59.19;94251.44;5015517;28;20232;-80
2021/12/26 02:13:44;;;;;;;5.07;3.00;;;-2.00;71.40;;;-3.34;59.12;94228.38;5026206;28;20196;-80
2021/12/26 02:16:13;;;;;;;5.70;2.92;;;-2.00;71.50;;;-3.31;59.07;94235.78;5028353;28;20220;-81
2021/12/26 02:18:41;;;;;;;5.85;3.20;;;-2.00;71.50;;;-3.27;59.18;94239.75;5021490;28;20638;-81
2021/12/26 02:24:08;;;;;;;6.30;3.70;;;-1.90;71.70;;;-3.23;59.16;94248.03;5074335;28;20214;-82
2021/12/26 02:29:20;;;;;;;6.53;3.22;;;-1.90;71.80;;;-3.15;59.40;94252.53;5041233;28;20235;-82
2021/12/26 02:31:48;;;;;;;6.65;3.53;;;-1.90;71.80;;;-3.11;59.42;94253.91;5037321;28;20626;-81
2021/12/26 02:34:15;;;;;;;6.47;3.58;;;-1.80;71.90;;;-3.07;59.15;94257.84;5038635;28;20200;-81
2021/12/26 02:36:43;;;;;;;5.47;3.58;;;-1.80;71.90;;;-3.02;59.19;94248.00;5038841;28;20309;-81
2021/12/26 02:39:11;;;;;;;6.38;3.20;;;-1.80;71.90;;;-3.01;59.26;94246.28;5038666;28;20212;-81
2021/12/26 02:41:39;;;;;;;4.78;3.03;;;-1.70;72.00;;;-2.99;59.18;94252.91;5022019;28;20203;-81
2021/12/26 02:44:07;;;;;;;4.70;2.70;;;-1.70;71.90;;;-2.95;59.18;94244.00;5022300;28;20208;-82
2021/12/26 02:46:40;;;;;;;5.47;2.90;;;-1.70;71.90;;;-2.94;59.19;94257.66;5022786;28;20208;-82
2021/12/26 02:49:08;;;;;;;5.95;3.17;;;-1.70;71.80;;;-2.93;59.06;94260.09;5055526;28;20549;-82
2021/12/26 02:51:38;;;;;;;4.40;3.10;;;-1.60;71.80;;;-2.94;59.17;94250.78;5034510;28;20247;-81
2021/12/26 02:54:05;;;;;;;4.22;2.80;;;-1.60;71.80;;;-2.96;58.96;94262.91;5035183;28;20231;-82
2021/12/26 02:56:34;;;;;;;5.90;3.08;;;-1.60;71.70;;;-2.99;58.66;94263.19;5086499;28;20255;-81
2021/12/26 02:59:01;;;;;;;3.90;2.78;;;-1.60;71.60;;;-3.01;58.81;94259.09;5038400;28;20188;-82
2021/12/26 03:01:29;;;;;;;4.10;2.83;;;-1.60;71.60;;;-3.15;59.11;94248.22;5021681;28;20241;-81
2021/12/26 03:03:59;;;;;;;3.20;2.58;;;-1.60;71.60;;;-3.13;58.98;94264.28;5021261;28;20626;-82
2021/12/26 03:06:50;;;;;;;5.60;3.15;;;-1.70;71.50;;;-3.19;58.77;94258.84;5038217;28;20281;-81
2021/12/26 03:09:17;;;;;;;4.03;2.83;;;-1.70;71.40;;;-3.26;59.31;94264.47;5041290;28;20277;-82
2021/12/26 03:11:46;;;;;;;3.92;2.67;;;-1.70;72.30;;;-3.32;59.05;94262.41;5037973;28;20227;-82
2021/12/26 03:14:14;;;;;;;3.65;2.83;;;-1.80;71.30;;;-3.39;59.03;94258.69;5054554;28;20282;-81
2021/12/26 03:16:50;;;;;;;4.97;3.10;;;-1.80;71.40;;;-3.44;59.05;94259.06;5038160;28;20689;-83
2021/12/26 03:19:18;;;;;;;5.60;3.28;;;-1.80;71.30;;;-3.47;58.95;94259.28;5054159;28;20229;-81
2021/12/26 03:21:51;;;;;;;5.07;2.90;;;-1.90;71.40;;;-3.50;58.99;94258.72;5052805;28;20274;-81
2021/12/26 03:24:18;;;;;;;4.60;2.97;;;-1.90;71.30;;;-3.53;59.40;94254.66;5021060;28;20220;-81
2021/12/26 03:26:45;;;;;;;5.65;3.00;;;-2.00;71.40;;;-3.57;59.36;94259.22;5037751;28;20200;-81
2021/12/26 03:29:12;;;;;;;6.40;3.10;;;-2.00;71.40;;;-3.59;58.89;94257.72;5054085;28;20204;-81
2021/12/26 03:31:41;;;;;;;4.05;2.85;;;-2.00;71.40;;;-3.63;59.01;94269.94;5036873;28;20196;-82
2021/12/26 03:34:10;;;;;;;5.93;3.17;;;-2.00;71.40;;;-3.67;59.17;94257.50;5038482;28;20228;-81
2021/12/26 03:36:38;;;;;;;6.53;2.95;;;-2.10;71.40;;;-3.68;59.18;94259.25;5015920;28;20303;-81
2021/12/26 03:39:05;;;;;;;5.40;3.03;;;-2.10;71.40;;;-3.70;59.11;94266.25;5037616;28;20196;-81
2021/12/26 03:41:33;;;;;;;6.40;3.53;;;-2.10;71.50;;;-3.73;59.22;94264.75;5038246;28;20201;-82
2021/12/26 03:44:02;;;;;;;5.68;2.83;;;-2.20;71.50;;;-3.77;59.30;94263.38;5070108;28;20204;-82
2021/12/26 03:46:31;;;;;;;5.60;3.00;;;-2.10;71.50;;;-3.77;59.30;94259.97;5036922;28;20253;-82
2021/12/26 03:49:03;;;;;;;4.30;2.70;;;-2.20;71.50;;;-3.79;59.37;94257.53;5036938;28;20204;-81
2021/12/26 03:51:33;;;;;;;5.93;3.13;;;-2.20;71.50;;;-3.81;59.31;94259.41;5037873;28;20199;-81
2021/12/26 03:54:07;;;;;;;5.72;2.78;;;-2.20;71.50;;;-3.83;59.38;94257.88;5020072;28;20200;-81
2021/12/26 03:56:35;;;;;;;6.75;3.13;;;-2.30;71.40;;;-3.84;59.73;94258.81;5036385;28;20208;-79
2021/12/26 03:59:11;;;;;;;4.45;2.90;;;-2.30;71.50;;;-3.90;59.66;94253.25;5038770;28;20566;-81
2021/12/26 04:01:39;;;;;;;4.95;2.67;;;-2.30;71.50;;;-3.90;59.29;94253.25;5017612;28;20207;-81
2021/12/26 04:04:07;;;;;;;3.03;2.53;;;-2.30;71.50;;;-3.91;59.38;94258.50;5035617;28;20655;-81
2021/12/26 04:06:38;;;;;;;4.18;2.60;;;-2.30;71.50;;;-3.91;59.30;94256.75;5037591;28;20192;-81
2021/12/26 04:09:08;;;;;;;3.10;2.65;;;-2.40;71.40;;;-3.92;59.41;94257.69;5036849;28;20250;-82
2021/12/26 04:11:38;;;;;;;4.53;2.45;;;-2.40;71.40;;;-3.94;59.30;94248.47;5053669;28;20208;-82
2021/12/26 04:14:06;;;;;;;3.97;2.83;;;-2.40;71.40;;;-3.95;59.15;94249.44;5037201;28;20250;-82
2021/12/26 04:16:33;;;;;;;5.90;2.92;;;-2.40;71.40;;;-3.98;58.91;94257.34;5036825;28;20211;-82
2021/12/26 04:19:00;;;;;;;3.85;2.70;;;-2.40;71.30;;;-4.06;58.91;94257.94;5037147;28;20210;-82
2021/12/26 04:21:28;;;;;;;4.13;2.70;;;-2.50;71.20;;;-4.07;58.97;94256.31;5036726;28;20250;-82
2021/12/26 04:24:01;;;;;;;6.28;2.88;;;-2.50;71.10;;;-4.13;58.93;94260.16;5054101;28;20199;-83
2021/12/26 04:26:30;;;;;;;5.28;3.20;;;-2.50;71.10;;;-4.21;58.95;94258.19;5037036;28;20258;-83
2021/12/26 04:28:57;;;;;;;5.10;2.75;;;-2.60;71.10;;;-4.28;58.95;94258.78;5036411;28;20286;-82
2021/12/26 04:31:25;;;;;;;5.05;2.75;;;-2.60;71.10;;;-4.34;59.16;94257.50;5035670;28;20658;-82
2021/12/26 04:33:52;;;;;;;4.25;2.95;;;-2.70;70.90;;;-4.40;58.80;94261.34;5052534;28;20230;-82
2021/12/26 04:36:21;;;;;;;4.25;2.90;;;-2.70;70.90;;;-4.46;58.95;94261.00;5036348;28;20219;-82
2021/12/26 04:38:49;;;;;;;4.45;2.75;;;-2.80;70.90;;;-4.54;58.87;94262.41;5053191;28;20203;-83
2021/12/26 04:41:16;;;;;;;3.60;2.53;;;-2.80;70.90;;;-4.59;59.01;94259.38;5036462;28;20257;-83
2021/12/26 04:44:02;;;;;;;5.03;3.35;;;-2.90;70.80;;;-4.66;58.87;94263.31;5052913;28;20277;-83
2021/12/26 04:47:02;;;;;;;4.22;2.75;;;-2.90;70.90;;;-4.72;58.98;94266.34;5008374;28;20220;-82
2021/12/26 04:49:30;;;;;;;4.72;2.80;;;-3.00;70.90;;;-4.81;59.04;94260.16;5036442;28;20227;-82
2021/12/26 04:51:58;;;;;;;7.03;2.78;;;-3.10;70.80;;;-4.81;58.82;94272.94;5019559;28;20207;-83
2021/12/26 04:54:29;;;;;;;4.63;2.95;;;-3.10;71.80;;;-4.86;58.90;94272.47;5036659;28;20220;-82
2021/12/26 04:56:57;;;;;;;4.95;3.13;;;-3.20;70.90;;;-4.89;58.99;94273.53;5035369;28;20218;-83
2021/12/26 04:59:26;;;;;;;5.60;2.92;;;-3.20;71.00;;;-4.95;59.15;94261.19;5052243;28;20219;-83
2021/12/26 05:01:54;;;;;;;3.58;2.40;;;-3.20;70.90;;;-4.97;59.14;94272.47;5035641;28;20204;-82
2021/12/26 05:04:22;;;;;;;4.28;2.80;;;-3.30;70.90;;;-5.02;58.83;94263.38;5035807;28;20219;-82
2021/12/26 05:06:49;;;;;;;4.72;3.20;;;-3.30;71.00;;;-5.04;59.03;94270.34;5035795;28;20188;-83
2021/12/26 05:09:16;;;;;;;5.70;3.00;;;-3.40;71.00;;;-5.10;59.16;94262.31;5019219;28;20203;-82
2021/12/26 05:11:44;;;;;;;4.22;3.10;;;-3.40;71.00;;;-5.14;58.95;94269.38;5035618;28;20234;-82
2021/12/26 05:14:11;;;;;;;5.75;3.00;;;-3.40;71.00;;;-5.15;59.00;94265.19;5019172;28;20195;-80
2021/12/26 05:16:38;;;;;;;6.95;3.03;;;-3.50;71.00;;;-5.20;59.29;94270.66;5018953;28;20318;-81
2021/12/26 05:19:10;;;;;;;4.78;2.95;;;-3.50;71.00;;;-5.22;59.15;94266.59;5020369;28;20196;-81
2021/12/26 05:21:37;;;;;;;7.05;3.10;;;-3.50;71.10;;;-5.26;59.02;94271.13;5012960;28;20545;-81
2021/12/26 05:24:05;;;;;;;4.63;2.80;;;-3.60;71.10;;;-5.29;59.09;94268.78;5035770;28;20231;-81
2021/12/26 05:26:32;;;;;;;4.43;2.72;;;-3.60;71.10;;;-5.33;59.02;94262.25;5034310;28;20676;-80
2021/12/26 05:29:00;;;;;;;5.30;2.97;;;-3.60;71.10;;;-5.36;59.17;94267.59;5019202;28;20196;-82
2021/12/26 05:31:28;;;;;;;5.18;3.10;;;-3.70;71.10;;;-5.40;59.15;94264.44;5035052;28;20235;-82
2021/12/26 05:33:55;;;;;;;5.13;3.08;;;-3.70;71.10;;;-5.42;59.12;94276.53;5051396;28;20196;-82
2021/12/26 05:36:23;;;;;;;5.43;3.30;;;-3.70;71.20;;;-5.45;58.67;94265.72;5034854;28;20255;-81
2021/12/26 05:38:53;;;;;;;4.50;3.15;;;-3.80;71.20;;;-5.47;59.36;94274.28;5035943;28;20231;-82
2021/12/26 05:41:20;;;;;;;6.15;3.83;;;-3.80;71.30;;;-5.50;59.22;94264.28;5034553;28;20231;-82
2021/12/26 05:44:03;;;;;;;7.07;3.47;;;-3.80;71.40;;;-5.52;59.53;94270.44;5050749;28;20199;-82
2021/12/26 05:46:31;;;;;;;5.68;3.17;;;-3.80;71.40;;;-5.53;59.03;94272.19;5050026;28;20204;-79
2021/12/26 05:49:00;;;;;;;4.25;2.83;;;-3.80;71.40;;;-5.55;59.17;94276.56;5034746;28;20594;-81
2021/12/26 05:51:32;;;;;;;5.70;3.58;;;-3.90;71.40;;;-5.59;59.49;94267.50;5019916;28;20245;-81
2021/12/26 05:54:06;;;;;;;7.47;3.40;;;-3.90;71.40;;;-5.59;59.38;94267.50;5031586;28;20201;-82
2021/12/26 05:56:34;;;;;;;4.65;3.33;;;-3.90;71.50;;;-5.60;59.49;94268.44;5059132;28;20592;-81
2021/12/26 05:59:03;;;;;;;5.22;3.33;;;-3.90;71.60;;;-5.59;59.47;94269.22;5051622;28;20224;-81
2021/12/26 06:01:32;;;;;;;5.25;3.17;;;-4.00;71.50;;;-5.64;59.39;94274.66;5050767;28;20200;-82
2021/12/26 06:03:59;;;;;;;6.00;3.30;;;-4.00;71.50;;;-5.62;59.50;94280.50;5034992;28;20216;-82
2021/12/26 06:06:27;;;;;;;4.30;3.13;;;-3.90;71.60;;;-5.62;59.44;94281.28;5050730;28;20199;-82
2021/12/26 06:08:54;;;;;;;7.13;3.60;;;-4.00;71.50;;;-5.63;59.47;94282.25;5051396;28;20188;-81
2021/12/26 06:11:22;;;;;;;5.97;3.80;;;-4.00;71.60;;;-5.63;59.55;94289.91;5018632;28;20248;-82
2021/12/26 06:13:49;;;;;;;5.78;3.63;;;-4.00;71.70;;;-5.60;59.73;94288.88;5018603;28;20287;-82
2021/12/26 06:16:20;;;;;;;6.57;3.55;;;-4.00;71.70;;;-5.62;59.59;94281.28;5035153;28;20731;-82
2021/12/26 06:18:47;;;;;;;4.57;3.05;;;-4.00;71.80;;;-5.54;59.55;94292.72;5034991;28;20227;-81
2021/12/26 06:21:32;;;;;;;4.80;3.15;;;-4.00;71.80;;;-5.53;59.86;94291.78;5050873;28;20204;-81
2021/12/26 06:24:24;;;;;;;5.93;3.17;;;-4.00;71.90;;;-5.51;59.85;94295.06;5041374;28;20713;-83
2021/12/26 06:27:20;;;;;;;5.35;3.20;;;-4.00;71.90;;;-5.44;59.89;94298.81;5029320;28;20283;-84
2021/12/26 06:30:12;;;;;;;5.30;3.15;;;-3.90;72.10;;;-5.40;59.96;94286.63;5046143;28;20641;-82
2021/12/26 06:33:04;;;;;;;5.45;3.17;;;-3.90;72.20;;;-5.30;60.05;94290.13;5038828;28;20238;-83
2021/12/26 06:35:50;;;;;;;5.00;3.17;;;-3.90;72.20;;;-5.21;60.00;94291.22;5038205;28;20245;-83
2021/12/26 06:38:38;;;;;;;4.10;2.83;;;-3.80;72.30;;;-5.16;59.91;94287.41;5037153;28;20207;-83
2021/12/26 06:41:28;;;;;;;4.60;2.63;;;-3.80;72.40;;;-5.07;60.04;94293.59;5065541;28;20212;-83
2021/12/26 06:44:07;;;;;;;5.57;3.40;;;-3.70;72.50;;;-5.06;59.98;94282.44;5051882;28;20200;-83
2021/12/26 06:46:57;;;;;;;5.15;3.55;;;-3.60;72.60;;;-4.92;59.96;94286.56;5032112;28;20204;-84
2021/12/26 06:49:31;;;;;;;4.97;3.30;;;-3.60;72.60;;;-4.83;59.94;94292.72;5048550;28;20393;-84
2021/12/26 06:52:02;;;;;;;4.82;3.50;;;-3.50;72.60;;;-4.74;60.06;94294.59;5032907;28;20197;-84
2021/12/26 06:54:30;;;;;;;6.93;3.75;;;-3.50;72.70;;;-4.64;60.12;94299.03;5040637;28;20285;-83
2021/12/26 06:56:57;;;;;;;5.88;4.43;;;-3.40;72.80;;;-4.58;60.24;94290.88;5020066;28;20723;-83
2021/12/26 06:59:25;;;;;;;6.53;4.25;;;-3.40;72.80;;;-4.45;60.20;94295.91;5021974;28;20273;-83
2021/12/26 07:01:53;;;;;;;8.90;5.53;;;-3.30;72.90;;;-4.37;60.15;94301.25;5055248;28;20203;-83
2021/12/26 07:04:24;;;;;;;4.55;4.05;;;-3.20;72.90;;;-4.30;59.90;94299.06;5023247;28;20212;-83
2021/12/26 07:06:57;;;;;;;10.18;5.78;;;-3.20;73.00;;;-4.21;59.90;94304.28;5038069;28;20250;-82
2021/12/26 07:09:29;;;;;;;10.45;6.82;;;-3.00;73.00;;;-4.18;60.11;94291.22;5039835;28;20273;-84
2021/12/26 07:11:58;;;;;;;10.60;6.30;;;-3.00;72.90;;;-4.04;60.29;94309.84;5022498;28;20204;-83
2021/12/26 07:14:38;;;;;;;9.85;5.75;;;-2.90;73.00;;;-3.96;59.98;94302.41;5055194;28;20223;-84
2021/12/26 07:17:05;;;;;;;9.15;4.95;;;-2.90;73.00;;;-3.89;59.75;94301.00;5037803;28;20220;-81
2021/12/26 07:19:33;;;;;;;8.02;6.07;;;-2.80;73.00;;;-3.80;60.04;94308.91;5018317;28;20315;-82
2021/12/26 07:22:10;;;;;;;7.53;5.70;;;-2.70;73.00;;;-3.74;59.94;94300.75;5026980;28;20195;-82
2021/12/26 07:24:43;;;;;;;8.45;5.22;;;-2.60;73.00;;;-3.66;59.96;94306.09;5021715;28;20311;-85
2021/12/26 07:27:12;;;;;;;7.05;4.88;;;-2.60;72.90;;;-3.58;59.69;94306.28;5039543;28;20184;-85
2021/12/26 07:30:12;;;;;;;6.30;4.47;;;-2.50;72.80;;;-3.52;59.55;94317.81;5000318;28;20258;-88
2021/12/26 07:32:40;;;;;;;6.50;4.18;;;-2.40;72.80;;;-3.47;59.70;94318.25;5011342;28;20484;-89
2021/12/26 07:35:10;;;;;;;7.75;4.05;;;-2.40;72.80;;;-3.39;59.74;94328.72;5037985;28;20212;-88
2021/12/26 07:37:40;;;;;;;5.38;3.88;;;-2.30;72.80;;;-3.30;59.47;94329.75;5039329;28;20209;-87
2021/12/26 07:40:09;;;;;;;5.35;3.97;;;-2.30;72.80;;;-3.27;59.41;94319.25;5038259;28;20303;-88
2021/12/26 07:42:40;;;;;;;6.13;3.80;;;-2.20;72.80;;;-3.19;59.86;94325.53;5037435;28;20222;-87
2021/12/26 07:45:46;;;;;;;6.05;4.20;;;-2.10;72.80;;;-3.09;59.58;94326.41;4996768;28;20308;-87
2021/12/26 07:48:14;;;;;;;29.05;14.40;;;-2.00;72.80;;;-3.04;59.58;94326.84;5013890;28;20293;-86
2021/12/26 07:50:41;;;;;;;44.13;19.67;;;-2.00;72.80;;;-2.96;59.57;94328.81;5026887;28;20315;-85
2021/12/26 07:53:26;;;;;;;32.60;15.38;;;-2.00;72.70;;;-2.92;59.66;94315.63;5024476;28;20207;-86
2021/12/26 07:56:14;;;;;;;19.85;9.75;;;-1.90;72.80;;;-2.88;59.60;94316.19;5021382;28;20219;-88
2021/12/26 07:59:00;;;;;;;13.65;7.53;;;-1.80;72.80;;;-2.77;59.42;94318.69;5053156;28;20688;-87
2021/12/26 08:01:46;;;;;;;10.68;6.53;;;-1.70;72.70;;;-2.70;59.54;94320.75;5040570;28;20334;-88
2021/12/26 08:04:45;;;;;;;8.88;5.70;;;-1.70;72.60;;;-2.63;59.39;94327.00;5041598;28;20227;-89
2021/12/26 08:07:34;;;;;;;7.45;4.47;;;-1.60;72.60;;;-2.57;59.32;94323.94;5039800;28;20206;-88
2021/12/26 08:10:03;;;;;;;10.38;7.13;;;-1.50;72.60;;;-2.52;59.19;94319.22;5021183;28;20215;-87
2021/12/26 08:12:30;;;;;;;14.63;9.43;;;-1.50;72.50;;;-2.47;59.32;94329.94;5070989;28;20245;-86
2021/12/26 08:15:01;;;;;;;8.73;6.32;;;-1.40;72.60;;;-2.45;58.68;94319.56;5037600;28;20239;-88
2021/12/26 08:17:29;;;;;;;7.88;5.65;;;-1.40;72.50;;;-2.30;59.00;94332.88;5037643;28;20718;-87
2021/12/26 08:19:58;;;;;;;8.05;4.93;;;-1.30;72.50;;;-2.23;59.19;94331.44;5036802;28;20223;-88
2021/12/26 08:22:26;;;;;;;6.78;3.97;;;-1.20;72.40;;;-2.15;59.22;94331.59;5037830;28;20208;-87
2021/12/26 08:24:53;;;;;;;6.43;4.55;;;-1.20;72.40;;;-2.11;59.01;94324.44;5027165;28;20311;-87
2021/12/26 08:27:21;;;;;;;7.05;4.70;;;-1.10;72.50;;;-2.03;59.03;94326.38;5052411;28;20634;-88
2021/12/26 08:29:48;;;;;;;8.07;5.55;;;-1.10;72.40;;;-1.96;58.99;94314.63;5037101;28;20262;-88
2021/12/26 08:32:17;;;;;;;8.57;5.60;;;-1.00;72.40;;;-1.86;58.65;94319.81;5037248;28;20192;-86
2021/12/26 08:34:45;;;;;;;8.40;4.75;;;-0.90;72.40;;;-1.88;58.76;94312.22;5036665;28;20220;-87
2021/12/26 08:37:14;;;;;;;8.40;5.63;;;-0.90;72.30;;;-1.74;58.74;94325.66;5019029;28;20298;-87
2021/12/26 08:39:44;;;;;;;7.50;4.95;;;-0.80;72.20;;;-1.70;58.64;94321.88;5036362;28;20722;-86
2021/12/26 08:42:13;;;;;;;7.05;4.72;;;-0.80;72.30;;;-1.65;58.61;94317.97;5025187;28;20199;-86
2021/12/26 08:44:42;;;;;;;9.05;4.53;;;-0.70;72.30;;;-1.58;58.57;94327.72;5027962;28;20262;-87
2021/12/26 08:47:11;;;;;;;4.65;3.88;;;-0.60;72.30;;;-1.50;58.51;94327.88;5035339;28;20199;-86
2021/12/26 08:49:39;;;;;;;6.85;4.43;;;-0.60;72.30;;;-1.50;58.24;94320.97;5019902;28;20224;-86
2021/12/26 08:52:08;;;;;;;6.47;5.03;;;-0.50;72.30;;;-1.42;58.29;94325.44;5036802;28;20228;-88
2021/12/26 08:54:38;;;;;;;8.10;4.82;;;-0.50;72.30;;;-1.33;58.34;94327.22;5036664;28;20270;-87
2021/12/26 08:57:07;;;;;;;7.20;5.03;;;-0.50;72.20;;;-1.30;58.70;94321.81;5020783;28;20322;-86
2021/12/26 08:59:36;;;;;;;8.93;4.90;;;-0.40;72.20;;;-1.22;58.06;94316.00;5053273;28;20251;-86
2021/12/26 09:02:08;;;;;;;8.38;5.03;;;-0.30;72.10;;;-1.20;58.26;94316.66;5069285;28;20295;-85
2021/12/26 09:04:38;;;;;;;8.88;4.85;;;-0.20;72.10;;;-1.15;58.13;94317.09;5034673;28;20227;-88
2021/12/26 09:07:07;;;;;;;7.22;3.78;;;-0.20;72.00;;;-1.05;57.85;94327.41;5037058;28;20250;-85
2021/12/26 09:09:35;;;;;;;6.25;4.32;;;-0.10;72.10;;;-0.98;58.14;94322.50;5035843;28;20216;-87
2021/12/26 09:12:04;;;;;;;7.38;4.20;;;-0.10;72.10;;;-0.92;58.29;94328.88;5060506;28;20219;-87
2021/12/26 09:14:32;;;;;;;7.05;4.55;;;0.00;72.20;;;-0.83;57.96;94335.78;5036651;28;20224;-85
2021/12/26 09:17:00;;;;;;;7.40;4.00;;;0.00;72.20;;;-0.77;57.90;94330.06;5036155;28;20192;-88
2021/12/26 09:19:28;;;;;;;5.93;4.10;;;0.10;72.10;;;-0.62;57.83;94332.22;5036342;28;20209;-86
2021/12/26 09:22:02;;;;;;;6.20;3.63;;;0.20;72.20;;;-0.56;57.57;94340.25;5069122;28;20431;-86
2021/12/26 09:24:29;;;;;;;5.20;3.20;;;0.20;71.90;;;-0.56;57.42;94331.69;5035996;28;20224;-87
2021/12/26 09:26:57;;;;;;;6.97;3.75;;;0.30;71.90;;;-0.42;57.41;94338.19;5036152;28;20196;-85
2021/12/26 09:29:24;;;;;;;6.85;5.40;;;0.40;71.80;;;-0.39;56.90;94333.56;5036014;28;20224;-87
2021/12/26 09:31:53;;;;;;;7.00;3.95;;;0.40;71.70;;;-0.30;56.76;94341.41;5016378;28;20239;-87
2021/12/26 09:34:21;;;;;;;4.65;3.40;;;0.50;71.60;;;-0.19;56.91;94341.25;5051511;28;20223;-87
2021/12/26 09:36:49;;;;;;;4.25;3.30;;;0.60;71.70;;;-0.11;56.77;94345.69;5036300;28;20207;-87
2021/12/26 09:39:17;;;;;;;4.80;3.40;;;0.60;71.70;;;-0.07;56.51;94337.53;5036183;28;20228;-87
2021/12/26 09:41:45;;;;;;;5.15;3.55;;;0.70;71.50;;;-0.05;56.78;94340.81;5036175;28;20200;-88
2021/12/26 09:44:18;;;;;;;5.28;3.08;;;0.70;71.40;;;-0.01;56.60;94342.13;5037009;28;20318;-89
2021/12/26 09:46:46;;;;;;;5.97;3.50;;;0.80;71.30;;;0.03;56.51;94349.59;5019830;28;20188;-87
2021/12/26 09:49:13;;;;;;;8.43;3.63;;;0.90;71.30;;;-0.02;56.34;94339.72;5035717;28;20196;-87
2021/12/26 09:51:41;;;;;;;5.07;3.60;;;0.90;71.10;;;0.05;56.34;94345.94;5019338;28;20200;-87
2021/12/26 09:54:10;;;;;;;5.75;3.67;;;0.90;71.10;;;0.10;55.96;94337.78;5019997;28;20216;-87
2021/12/26 09:56:38;;;;;;;6.03;4.03;;;1.00;70.80;;;0.11;55.86;94329.06;5019963;28;20204;-86
2021/12/26 09:59:17;;;;;;;7.15;4.18;;;1.00;70.90;;;0.17;56.10;94332.84;5019335;28;20220;-87
2021/12/26 10:01:50;;;;;;;6.68;4.63;;;1.00;70.60;;;0.26;56.30;94327.66;5036096;28;20192;-88
2021/12/26 10:04:39;;;;;;;6.32;3.97;;;1.10;70.90;;;0.37;56.35;94316.31;5036994;28;20219;-86
2021/12/26 10:07:19;;;;;;;5.82;3.78;;;1.10;71.00;;;0.45;56.43;94323.34;5052502;28;20207;-87
2021/12/26 10:09:50;;;;;;;5.78;3.97;;;1.20;70.90;;;0.54;55.66;94321.66;5036252;28;20700;-86
2021/12/26 10:12:20;;;;;;;6.95;4.00;;;1.20;70.90;;;0.56;55.53;94309.44;5032606;28;20201;-87
2021/12/26 10:14:52;;;;;;;37.22;17.70;;;1.30;70.70;;;0.67;55.56;94313.56;5079788;28;20208;-87
2021/12/26 10:17:27;;;;;;;24.55;12.68;;;1.40;70.50;;;0.67;55.47;94311.78;5035534;28;20203;-86
2021/12/26 10:20:10;;;;;;;15.82;8.82;;;1.40;70.50;;;0.74;55.38;94307.66;5036384;28;20227;-87
2021/12/26 10:22:38;;;;;;;18.65;9.13;;;1.50;69.90;;;0.80;55.28;94308.88;5035692;28;20608;-87
2021/12/26 10:25:12;;;;;;;16.75;8.55;;;1.50;70.60;;;0.86;55.56;94316.03;5052018;28;20777;-85
2021/12/26 10:27:41;;;;;;;12.00;6.40;;;1.60;70.00;;;0.92;54.67;94314.63;5035503;28;20665;-86
2021/12/26 10:30:15;;;;;;;9.68;5.07;;;1.60;70.50;;;0.96;54.89;94315.94;5036189;28;20218;-87
2021/12/26 10:32:43;;;;;;;10.77;6.55;;;1.70;70.10;;;1.01;54.92;94316.31;5022718;28;20200;-86
2021/12/26 10:35:17;;;;;;;9.60;5.88;;;1.70;70.20;;;1.08;54.56;94313.97;5039712;28;20223;-87
2021/12/26 10:37:52;;;;;;;7.60;4.55;;;1.70;70.10;;;1.15;54.89;94307.25;5040060;28;20219;-88
2021/12/26 10:40:28;;;;;;;6.60;4.07;;;1.80;70.20;;;1.23;55.13;94303.91;5039695;28;20227;-86
2021/12/26 10:43:03;;;;;;;6.28;4.15;;;1.90;70.20;;;1.32;55.10;94308.19;5040444;28;20287;-87
2021/12/26 10:45:34;;;;;;;10.38;5.47;;;2.00;70.30;;;1.41;54.98;94301.31;5039000;28;20220;-86